createdAt,value
2022-11-08T00:02:48.770Z,9.85
2022-11-08T00:06:09.363Z,6.05
2022-11-08T00:09:36.362Z,38.65
2022-11-08T00:12:56.722Z,11.98
2022-11-08T00:16:01.089Z,6.80
2022-11-08T00:19:02.997Z,4.15
2022-11-08T00:22:05.040Z,3.85
2022-11-08T00:25:07.337Z,4.25
2022-11-08T00:28:09.075Z,4.72
2022-11-08T00:31:10.909Z,4.90
2022-11-08T00:34:13.891Z,4.07
2022-11-08T00:37:16.811Z,3.08
2022-11-08T00:40:18.886Z,4.13
2022-11-08T00:43:21.385Z,8.25
2022-11-08T00:46:23.331Z,14.57
2022-11-08T00:49:25.221Z,9.55
2022-11-08T00:52:27.154Z,7.53
2022-11-08T00:55:28.916Z,5.70
2022-11-08T00:58:30.793Z,3.60
2022-11-08T01:01:33.050Z,3.85
2022-11-08T01:04:35.031Z,2.80
2022-11-08T01:07:38.406Z,2.92
2022-11-08T01:10:44.979Z,3.10
2022-11-08T01:13:49.255Z,3.33
2022-11-08T01:16:52.345Z,3.70
2022-11-08T01:19:54.064Z,4.10
2022-11-08T01:22:55.776Z,4.22
2022-11-08T01:25:57.597Z,4.20
2022-11-08T01:28:59.795Z,5.25
2022-11-08T01:32:01.629Z,3.58
2022-11-08T01:35:03.679Z,3.50
2022-11-08T01:38:06.915Z,4.20
2022-11-08T01:41:11.844Z,3.78
2022-11-08T01:44:16.890Z,3.40
2022-11-08T01:47:18.987Z,4.22
2022-11-08T01:50:20.803Z,4.32
2022-11-08T01:53:22.831Z,3.35
2022-11-08T01:56:24.817Z,3.80
2022-11-08T01:59:30.677Z,3.88
2022-11-08T02:02:33.310Z,4.57
2022-11-08T02:05:35.110Z,2.85
2022-11-08T02:08:39.702Z,6.25
2022-11-08T02:11:41.870Z,11.05
2022-11-08T02:14:43.768Z,8.77
2022-11-08T02:17:45.647Z,8.30
2022-11-08T02:21:09.159Z,9.15
2022-11-08T02:24:12.468Z,7.50
2022-11-08T02:27:15.053Z,8.48
2022-11-08T02:30:16.840Z,9.60
2022-11-08T02:33:23.011Z,9.82
2022-11-08T02:36:24.927Z,7.35
2022-11-08T02:39:26.833Z,7.30
2022-11-08T02:42:28.496Z,7.57
2022-11-08T02:45:30.181Z,8.18
2022-11-08T02:48:31.859Z,7.63
2022-11-08T02:51:33.683Z,6.85
2022-11-08T02:54:35.646Z,6.25
2022-11-08T02:57:37.332Z,5.07
2022-11-08T03:00:39.628Z,5.05
2022-11-08T03:03:41.329Z,5.57
2022-11-08T03:06:43.146Z,5.78
2022-11-08T03:09:44.953Z,5.28
2022-11-08T03:12:46.684Z,5.45
2022-11-08T03:15:48.479Z,5.40
2022-11-08T03:18:50.206Z,5.72
2022-11-08T03:21:51.902Z,5.57
2022-11-08T03:24:53.767Z,6.07
2022-11-08T03:27:55.811Z,4.60
2022-11-08T03:30:58.058Z,4.63
2022-11-08T03:33:59.811Z,3.78
2022-11-08T03:37:01.538Z,3.22
2022-11-08T03:40:04.110Z,3.58
2022-11-08T03:43:05.871Z,3.42
2022-11-08T03:46:07.603Z,4.05
2022-11-08T03:49:09.519Z,3.75
2022-11-08T03:52:11.657Z,3.85
2022-11-08T03:55:14.396Z,3.20
2022-11-08T03:58:16.492Z,3.67
2022-11-08T04:01:18.526Z,3.13
2022-11-08T04:04:20.377Z,3.53
2022-11-08T04:07:22.189Z,4.75
2022-11-08T04:10:23.866Z,2.85
2022-11-08T04:13:44.245Z,2.85
2022-11-08T04:16:45.995Z,2.70
2022-11-08T04:20:20.036Z,2.67
2022-11-08T04:23:21.693Z,3.72
2022-11-08T04:26:23.529Z,4.13
2022-11-08T04:29:25.479Z,3.63
2022-11-08T04:32:27.160Z,2.40
2022-11-08T04:35:30.123Z,3.67
2022-11-08T04:38:32.381Z,3.30
2022-11-08T04:41:34.319Z,4.75
2022-11-08T04:44:36.094Z,4.15
2022-11-08T04:47:41.117Z,3.45
2022-11-08T04:50:45.052Z,3.75
2022-11-08T04:53:46.976Z,3.28
2022-11-08T04:56:49.196Z,3.95
2022-11-08T04:59:50.915Z,3.55
2022-11-08T05:02:52.922Z,4.22
2022-11-08T05:05:54.848Z,3.38
2022-11-08T05:08:57.856Z,3.40
2022-11-08T05:11:59.976Z,3.70
2022-11-08T05:15:01.690Z,3.60
2022-11-08T05:18:03.603Z,4.43
2022-11-08T05:21:23.908Z,3.47
2022-11-08T05:24:25.914Z,4.43
2022-11-08T05:27:28.752Z,3.60
2022-11-08T05:30:30.557Z,3.38
2022-11-08T05:33:32.920Z,3.42
2022-11-08T05:36:35.024Z,5.03
2022-11-08T05:39:36.961Z,3.88
2022-11-08T05:42:38.805Z,3.15
2022-11-08T05:45:40.722Z,2.75
2022-11-08T05:48:43.620Z,3.63
2022-11-08T05:51:45.499Z,5.95
2022-11-08T05:54:47.763Z,7.45
2022-11-08T05:57:49.852Z,2.75
2022-11-08T06:00:51.641Z,3.97
2022-11-08T06:03:53.570Z,3.28
2022-11-08T06:06:57.785Z,3.67
2022-11-08T06:09:59.858Z,2.60
2022-11-08T06:13:01.816Z,3.85
2022-11-08T06:16:05.801Z,3.90
2022-11-08T06:19:07.909Z,3.28
2022-11-08T06:22:09.982Z,4.30
2022-11-08T06:25:12.721Z,3.22
2022-11-08T06:28:15.043Z,3.05
2022-11-08T06:31:17.011Z,4.18
2022-11-08T06:34:18.768Z,3.30
2022-11-08T06:37:20.601Z,3.40
2022-11-08T06:40:22.477Z,3.35
2022-11-08T06:43:24.331Z,3.13
2022-11-08T06:46:26.750Z,3.70
2022-11-08T06:49:28.795Z,3.47
2022-11-08T06:52:30.608Z,4.47
2022-11-08T06:55:33.066Z,3.45
2022-11-08T06:58:35.160Z,4.13
2022-11-08T07:01:38.441Z,5.05
2022-11-08T07:04:42.729Z,4.50
2022-11-08T07:07:44.571Z,4.53
2022-11-08T07:10:46.407Z,5.72
2022-11-08T07:13:48.200Z,5.30
2022-11-08T07:16:50.065Z,6.05
2022-11-08T07:19:52.035Z,6.97
2022-11-08T07:22:58.087Z,6.93
2022-11-08T07:26:04.260Z,5.90
2022-11-08T07:29:06.081Z,6.07
2022-11-08T07:32:07.899Z,6.82
2022-11-08T07:35:10.040Z,6.20
2022-11-08T07:38:11.916Z,7.68
2022-11-08T07:41:13.710Z,9.75
2022-11-08T07:44:15.514Z,10.82
2022-11-08T07:47:17.401Z,9.50
2022-11-08T07:50:19.193Z,10.13
2022-11-08T07:53:21.806Z,7.82
2022-11-08T07:56:23.687Z,7.95
2022-11-08T07:59:25.598Z,6.07
2022-11-08T08:02:27.483Z,7.25
2022-11-08T08:05:35.119Z,7.20
2022-11-08T08:08:37.106Z,8.38
2022-11-08T08:11:38.921Z,6.97
2022-11-08T08:14:40.837Z,5.90
2022-11-08T08:17:42.661Z,6.38
2022-11-08T08:20:46.736Z,6.70
2022-11-08T08:23:48.650Z,6.05
2022-11-08T08:26:50.501Z,6.38
2022-11-08T08:29:52.376Z,7.80
2022-11-08T08:33:26.978Z,7.40
2022-11-08T08:36:24.190Z,8.38
2022-11-08T08:39:26.109Z,8.82
2022-11-08T08:42:27.979Z,9.10
2022-11-08T08:45:30.147Z,9.68
2022-11-08T08:48:32.566Z,8.73
2022-11-08T08:51:34.681Z,8.55
2022-11-08T08:54:36.740Z,6.43
2022-11-08T08:57:38.685Z,5.03
2022-11-08T09:04:02.790Z,6.10
2022-11-08T09:07:05.142Z,5.53
2022-11-08T09:10:08.289Z,7.03
2022-11-08T09:13:10.168Z,7.70
2022-11-08T09:16:13.764Z,6.78
2022-11-08T09:19:15.586Z,5.82
2022-11-08T09:22:17.432Z,5.03
2022-11-08T09:25:19.894Z,5.45
2022-11-08T09:28:22.011Z,6.65
2022-11-08T09:31:25.157Z,6.13
2022-11-08T09:34:27.302Z,5.57
2022-11-08T09:37:29.641Z,5.35
2022-11-08T09:40:47.177Z,5.18
2022-11-08T09:47:36.253Z,5.00
2022-11-08T09:50:40.919Z,5.57
2022-11-08T09:53:53.200Z,5.28
2022-11-08T09:56:57.992Z,6.15
2022-11-08T10:00:04.518Z,5.75
2022-11-08T10:06:43.656Z,6.88
2022-11-08T10:10:30.742Z,31.67
2022-11-08T10:13:52.608Z,8.90
2022-11-08T10:17:07.358Z,7.78
2022-11-08T10:20:51.395Z,8.27
2022-11-08T10:24:16.773Z,6.70
2022-11-08T10:27:25.346Z,6.20
2022-11-08T10:30:33.467Z,4.65
2022-11-08T10:33:45.696Z,4.75
2022-11-08T10:36:49.239Z,5.00
2022-11-08T10:40:04.460Z,5.30
2022-11-08T10:43:10.332Z,4.10
2022-11-08T10:46:27.579Z,4.88
2022-11-08T10:49:43.874Z,4.57
2022-11-08T10:52:54.659Z,4.90
2022-11-08T10:56:02.072Z,4.88
2022-11-08T10:59:03.889Z,4.95
2022-11-08T11:02:26.378Z,4.07
2022-11-08T11:05:37.368Z,4.28
2022-11-08T11:08:49.290Z,4.95
2022-11-08T11:12:08.226Z,4.68
2022-11-08T11:15:16.483Z,6.07
2022-11-08T11:18:28.123Z,4.93
2022-11-08T11:21:36.832Z,4.40
2022-11-08T11:24:51.462Z,4.82
2022-11-08T11:28:02.518Z,4.85
2022-11-08T11:31:17.081Z,4.35
2022-11-08T11:34:19.011Z,4.63
2022-11-08T11:37:35.587Z,3.63
2022-11-08T11:40:56.723Z,5.75
2022-11-08T11:44:15.723Z,5.10
2022-11-08T11:47:37.494Z,4.88
2022-11-08T11:50:41.215Z,5.45
2022-11-08T11:53:47.675Z,3.70
2022-11-08T11:57:08.960Z,3.72
2022-11-08T12:00:15.257Z,4.57
2022-11-08T12:04:13.054Z,4.65
2022-11-08T12:07:30.054Z,4.25
2022-11-08T12:10:50.659Z,5.35
2022-11-08T12:13:55.543Z,4.60
2022-11-08T12:17:32.635Z,4.47
2022-11-08T12:20:49.200Z,3.50
2022-11-08T12:23:51.108Z,4.50
2022-11-08T12:27:17.725Z,4.22
2022-11-08T12:30:21.030Z,3.92
2022-11-08T12:33:32.115Z,4.55
2022-11-08T12:36:52.931Z,4.88
2022-11-08T12:40:00.679Z,4.15
2022-11-08T12:43:40.199Z,4.75
2022-11-08T12:47:14.493Z,5.13
2022-11-08T12:50:20.775Z,5.63
2022-11-08T12:53:41.434Z,4.70
2022-11-08T12:56:45.906Z,4.40
2022-11-08T13:00:15.669Z,5.00
2022-11-08T13:03:29.787Z,5.25
2022-11-08T13:06:41.027Z,5.43
2022-11-08T13:10:04.790Z,5.55
2022-11-08T13:13:33.002Z,4.75
2022-11-08T13:16:39.403Z,5.18
2022-11-08T13:19:48.009Z,5.07
2022-11-08T13:23:00.961Z,5.07
2022-11-08T13:26:42.319Z,5.43
2022-11-08T13:29:44.345Z,4.53
2022-11-08T13:33:05.609Z,4.13
2022-11-08T13:36:15.305Z,3.80
2022-11-08T13:39:29.338Z,5.43
2022-11-08T13:42:41.076Z,5.28
2022-11-08T13:45:44.612Z,5.15
2022-11-08T13:48:59.262Z,5.80
2022-11-08T13:52:38.599Z,5.10
2022-11-08T13:55:43.662Z,5.43
2022-11-08T13:58:46.936Z,5.40
2022-11-08T14:01:48.760Z,5.63
2022-11-08T14:04:51.320Z,5.07
2022-11-08T14:08:20.431Z,6.70
2022-11-08T14:12:00.536Z,5.50
2022-11-08T14:15:17.688Z,6.90
2022-11-08T14:18:29.905Z,5.60
2022-11-08T14:21:31.825Z,5.20
2022-11-08T14:24:37.016Z,6.18
2022-11-08T14:27:40.819Z,5.80
2022-11-08T14:30:50.699Z,6.35
2022-11-08T14:33:53.839Z,7.40
2022-11-08T14:36:56.425Z,5.88
2022-11-08T14:39:58.463Z,7.55
2022-11-08T14:43:00.393Z,6.95
2022-11-08T14:46:12.382Z,6.82
2022-11-08T14:49:14.207Z,18.88
2022-11-08T14:52:26.073Z,18.73
2022-11-08T14:55:27.991Z,10.88
2022-11-08T14:58:30.343Z,13.38
2022-11-08T15:01:32.882Z,11.02
2022-11-08T15:04:39.713Z,7.65
2022-11-08T15:07:41.830Z,9.48
2022-11-08T15:11:07.112Z,8.52
2022-11-08T15:14:17.354Z,7.63
2022-11-08T15:17:37.709Z,8.07
2022-11-08T15:20:40.990Z,7.13
2022-11-08T15:23:48.324Z,7.40
2022-11-08T15:27:21.715Z,6.95
2022-11-08T15:30:37.992Z,6.03
2022-11-08T15:33:42.057Z,8.50
2022-11-08T15:36:44.057Z,8.57
2022-11-08T15:39:46.488Z,10.23
2022-11-08T15:42:50.897Z,11.57
2022-11-08T15:45:53.837Z,7.53
2022-11-08T15:48:57.817Z,7.45
2022-11-08T15:51:59.952Z,7.72
2022-11-08T15:55:01.779Z,7.10
2022-11-08T15:58:04.812Z,6.28
2022-11-08T16:01:07.144Z,6.57
2022-11-08T16:04:13.492Z,7.88
2022-11-08T16:07:15.721Z,7.28
2022-11-08T16:10:20.917Z,6.68
2022-11-08T16:13:33.261Z,7.50
2022-11-08T16:16:35.887Z,7.97
2022-11-08T16:19:37.768Z,7.53
2022-11-08T16:22:40.012Z,10.45
2022-11-08T16:25:49.715Z,9.68
2022-11-08T16:28:51.938Z,13.02
2022-11-08T16:31:53.812Z,11.05
2022-11-08T16:34:55.824Z,8.88
2022-11-08T16:37:57.662Z,10.55
2022-11-08T16:40:59.626Z,9.27
2022-11-08T16:44:01.543Z,13.68
2022-11-08T16:47:03.635Z,11.18
2022-11-08T16:50:07.762Z,8.52
2022-11-08T16:53:20.944Z,9.82
2022-11-08T16:56:23.438Z,9.38
2022-11-08T16:59:25.496Z,7.88
2022-11-08T17:02:31.751Z,7.55
2022-11-08T17:05:34.202Z,8.32
2022-11-08T17:08:36.466Z,9.48
2022-11-08T17:11:39.831Z,8.65
2022-11-08T17:14:41.895Z,9.38
2022-11-08T17:17:44.815Z,8.70
2022-11-08T17:20:47.763Z,9.13
2022-11-08T17:23:50.233Z,9.27
2022-11-08T17:26:53.832Z,9.95
2022-11-08T17:29:55.870Z,15.07
2022-11-08T17:32:57.968Z,9.35
2022-11-08T17:36:07.620Z,11.23
2022-11-08T17:39:12.525Z,8.88
2022-11-08T17:42:15.055Z,9.18
2022-11-08T17:45:17.167Z,8.80
2022-11-08T17:48:19.555Z,9.32
2022-11-08T17:51:22.350Z,9.90
2022-11-08T17:54:24.981Z,9.85
2022-11-08T17:57:30.217Z,10.18
2022-11-08T18:00:33.763Z,10.00
2022-11-08T18:03:35.936Z,9.20
2022-11-08T18:06:40.789Z,9.93
2022-11-08T18:09:42.777Z,11.75
2022-11-08T18:12:45.324Z,10.73
2022-11-08T18:15:48.421Z,11.25
2022-11-08T18:18:51.370Z,10.77
2022-11-08T18:21:54.472Z,10.18
2022-11-08T18:24:57.335Z,10.63
2022-11-08T18:27:59.463Z,10.52
2022-11-08T18:31:11.263Z,13.52
2022-11-08T18:34:13.324Z,13.13
2022-11-08T18:37:15.333Z,13.07
2022-11-08T18:40:17.829Z,16.45
2022-11-08T18:43:20.219Z,11.45
2022-11-08T18:46:24.539Z,15.75
2022-11-08T18:49:27.014Z,15.82
2022-11-08T18:52:29.966Z,15.10
2022-11-08T18:55:33.728Z,16.17
2022-11-08T18:58:36.562Z,15.00
2022-11-08T19:01:39.463Z,17.23
2022-11-08T19:04:42.939Z,13.80
2022-11-08T19:07:46.941Z,16.73
2022-11-08T19:10:54.998Z,13.05
2022-11-08T19:13:59.889Z,15.15
2022-11-08T19:17:05.386Z,12.73
2022-11-08T19:20:11.151Z,14.52
2022-11-08T19:23:13.457Z,18.65
2022-11-08T19:26:25.140Z,12.57
2022-11-08T19:29:30.235Z,13.88
2022-11-08T19:32:33.205Z,12.52
2022-11-08T19:35:37.874Z,12.35
2022-11-08T19:38:41.444Z,13.63
2022-11-08T19:41:45.649Z,13.23
2022-11-08T19:44:49.044Z,12.95
2022-11-08T19:47:53.041Z,12.25
2022-11-08T19:50:57.121Z,11.50
2022-11-08T19:54:05.985Z,11.55
2022-11-08T19:57:12.292Z,11.32
2022-11-08T20:00:16.032Z,11.43
2022-11-08T20:03:19.304Z,12.82
2022-11-08T20:06:22.760Z,11.90
2022-11-08T20:09:30.639Z,12.32
2022-11-08T20:12:33.065Z,10.88
2022-11-08T20:15:37.640Z,12.43
2022-11-08T20:18:41.597Z,11.43
2022-11-08T20:21:46.541Z,12.95
2022-11-08T20:24:49.047Z,11.23
2022-11-08T20:27:50.968Z,11.75
2022-11-08T20:30:53.245Z,12.70
2022-11-08T20:33:56.196Z,11.75
2022-11-08T20:36:58.856Z,11.30
2022-11-08T20:40:00.745Z,12.52
2022-11-08T20:43:02.782Z,12.20
2022-11-08T20:46:06.895Z,11.50
2022-11-08T20:49:09.687Z,13.88
2022-11-08T20:52:11.816Z,10.52
2022-11-08T20:55:13.996Z,12.95
2022-11-08T20:58:16.230Z,11.82
2022-11-08T21:01:21.501Z,11.27
2022-11-08T21:04:23.850Z,12.00
2022-11-08T21:10:49.096Z,12.85
2022-11-08T21:13:51.293Z,11.55
2022-11-08T21:17:20.070Z,11.73
2022-11-08T21:20:15.696Z,12.00
2022-11-08T21:23:19.076Z,11.73
2022-11-08T21:26:21.108Z,12.65
2022-11-08T21:29:23.024Z,14.27
2022-11-08T21:32:25.102Z,12.38
2022-11-08T21:35:27.028Z,10.32
2022-11-08T21:38:29.530Z,11.88
2022-11-08T21:41:31.602Z,11.88
2022-11-08T21:44:33.455Z,11.65
2022-11-08T21:47:35.681Z,11.95
2022-11-08T21:50:38.335Z,11.02
2022-11-08T21:53:49.449Z,11.77
2022-11-08T21:56:55.827Z,12.32
2022-11-08T21:59:57.852Z,12.82
2022-11-08T22:02:59.859Z,11.65
2022-11-08T22:06:02.181Z,11.60
2022-11-08T22:09:04.393Z,11.38
2022-11-08T22:12:06.602Z,11.40
2022-11-08T22:15:09.559Z,10.93
2022-11-08T22:18:36.420Z,10.82
2022-11-08T22:21:40.501Z,9.50
2022-11-08T22:24:43.343Z,11.18
2022-11-08T22:27:45.209Z,10.38
2022-11-08T22:30:51.772Z,11.57
2022-11-08T22:33:53.617Z,11.43
2022-11-08T22:36:55.543Z,10.65
2022-11-08T22:39:57.618Z,10.20
2022-11-08T22:42:59.593Z,11.35
2022-11-08T22:46:01.908Z,11.60
2022-11-08T22:49:04.079Z,11.00
2022-11-08T22:52:06.338Z,10.77
2022-11-08T22:55:08.960Z,10.82
2022-11-08T22:58:12.174Z,11.80
2022-11-08T23:01:15.264Z,11.23
2022-11-08T23:04:17.537Z,10.30
2022-11-08T23:07:19.411Z,10.48
2022-11-08T23:10:21.385Z,10.40
2022-11-08T23:13:41.940Z,10.60
2022-11-08T23:16:45.536Z,10.63
2022-11-08T23:20:05.958Z,9.23
2022-11-08T23:23:27.868Z,10.50
2022-11-08T23:27:05.179Z,8.63
2022-11-08T23:30:26.903Z,9.27
2022-11-08T23:33:28.751Z,10.50
2022-11-08T23:36:30.619Z,10.25
2022-11-08T23:39:32.523Z,9.57
2022-11-08T23:42:52.909Z,11.48
2022-11-08T23:45:54.813Z,10.48
2022-11-08T23:48:56.733Z,11.25
2022-11-08T23:51:58.797Z,10.55
2022-11-08T23:55:00.572Z,10.15
2022-11-08T23:58:02.328Z,10.70
